createdAt,value
2023-02-05T00:00:20.762Z,15.00
2023-02-05T00:03:09.149Z,12.23
2023-02-05T00:05:37.733Z,16.33
2023-02-05T00:08:06.526Z,14.30
2023-02-05T00:10:35.461Z,13.90
2023-02-05T00:13:03.722Z,14.27
2023-02-05T00:15:34.173Z,14.88
2023-02-05T00:18:02.501Z,11.60
2023-02-05T00:20:31.036Z,12.88
2023-02-05T00:22:59.459Z,13.05
2023-02-05T00:25:29.049Z,14.88
2023-02-05T00:27:57.396Z,13.25
2023-02-05T00:30:25.925Z,18.83
2023-02-05T00:32:55.865Z,14.75
2023-02-05T00:35:24.669Z,12.90
2023-02-05T00:37:52.838Z,12.63
2023-02-05T00:40:21.411Z,17.42
2023-02-05T00:42:49.777Z,13.23
2023-02-05T00:45:18.489Z,12.02
2023-02-05T00:47:46.904Z,13.40
2023-02-05T00:50:18.487Z,11.55
2023-02-05T00:52:46.866Z,14.70
2023-02-05T00:55:15.597Z,12.73
2023-02-05T00:57:43.931Z,16.50
2023-02-05T01:00:13.612Z,14.23
2023-02-05T01:02:41.927Z,13.25
2023-02-05T01:05:11.086Z,13.35
2023-02-05T01:07:49.869Z,11.05
2023-02-05T01:10:18.442Z,11.73
2023-02-05T01:12:46.770Z,12.05
2023-02-05T01:15:15.498Z,13.02
2023-02-05T01:17:43.725Z,10.18
2023-02-05T01:20:14.537Z,13.05
2023-02-05T01:22:43.413Z,12.90
2023-02-05T01:25:13.532Z,11.32
2023-02-05T01:27:41.733Z,12.65
2023-02-05T01:30:12.617Z,14.68
2023-02-05T01:32:41.739Z,12.98
2023-02-05T01:35:10.872Z,12.65
2023-02-05T01:37:39.269Z,10.90
2023-02-05T01:40:08.417Z,11.40
2023-02-05T01:42:37.990Z,11.15
2023-02-05T01:45:43.370Z,12.10
2023-02-05T01:48:11.658Z,11.55
2023-02-05T01:50:43.843Z,11.57
2023-02-05T01:53:15.149Z,11.48
2023-02-05T01:55:46.936Z,12.23
2023-02-05T01:58:16.858Z,10.25
2023-02-05T02:00:45.528Z,14.60
2023-02-05T02:03:15.560Z,9.82
2023-02-05T02:05:44.175Z,11.20
2023-02-05T02:08:13.704Z,9.63
2023-02-05T02:10:44.313Z,12.32
2023-02-05T02:13:12.974Z,9.18
2023-02-05T02:15:43.037Z,10.48
2023-02-05T02:18:29.988Z,10.60
2023-02-05T02:21:42.937Z,14.63
2023-02-05T02:24:27.438Z,9.98
2023-02-05T02:27:04.427Z,11.27
2023-02-05T02:29:38.165Z,12.60
2023-02-05T02:32:12.575Z,13.77
2023-02-05T02:34:43.945Z,11.20
2023-02-05T02:37:16.364Z,13.55
2023-02-05T02:39:51.541Z,11.55
2023-02-05T02:42:24.772Z,14.35
2023-02-05T02:44:58.527Z,12.00
2023-02-05T02:47:29.916Z,10.48
2023-02-05T02:50:02.305Z,12.65
2023-02-05T02:52:35.012Z,10.00
2023-02-05T02:55:08.382Z,9.55
2023-02-05T02:57:39.405Z,15.75
2023-02-05T03:00:13.877Z,13.90
2023-02-05T03:02:42.776Z,12.25
2023-02-05T03:05:14.546Z,12.52
2023-02-05T03:07:45.333Z,12.70
2023-02-05T03:10:16.190Z,15.13
2023-02-05T03:12:44.956Z,15.20
2023-02-05T03:15:14.999Z,12.50
2023-02-05T03:17:44.101Z,13.07
2023-02-05T03:20:17.637Z,12.30
2023-02-05T03:22:46.126Z,10.90
2023-02-05T03:25:14.624Z,12.27
2023-02-05T03:27:43.404Z,12.93
2023-02-05T03:30:12.953Z,11.05
2023-02-05T03:32:55.705Z,14.82
2023-02-05T03:35:32.276Z,11.60
2023-02-05T03:38:09.138Z,13.80
2023-02-05T03:40:42.797Z,12.20
2023-02-05T03:43:15.238Z,10.77
2023-02-05T03:45:52.563Z,11.32
2023-02-05T03:48:41.498Z,16.15
2023-02-05T03:51:22.704Z,14.25
2023-02-05T03:54:00.601Z,14.80
2023-02-05T03:56:33.073Z,18.33
2023-02-05T03:59:03.212Z,17.67
2023-02-05T04:01:31.865Z,15.98
2023-02-05T04:04:02.775Z,17.27
2023-02-05T04:06:31.114Z,13.55
2023-02-05T04:08:59.756Z,13.27
2023-02-05T04:11:28.167Z,14.73
2023-02-05T04:13:56.734Z,16.50
2023-02-05T04:16:25.349Z,12.07
2023-02-05T04:18:53.807Z,12.75
2023-02-05T04:21:23.390Z,12.82
2023-02-05T04:23:52.143Z,16.85
2023-02-05T04:26:20.518Z,11.73
2023-02-05T04:28:49.022Z,13.93
2023-02-05T04:31:17.354Z,14.15
2023-02-05T04:33:46.006Z,12.32
2023-02-05T04:36:15.695Z,16.20
2023-02-05T04:38:45.504Z,15.82
2023-02-05T04:41:13.924Z,14.80
2023-02-05T04:43:42.532Z,14.25
2023-02-05T04:46:11.328Z,16.45
2023-02-05T04:48:40.614Z,13.93
2023-02-05T04:51:10.313Z,15.35
2023-02-05T04:53:39.584Z,14.07
2023-02-05T04:56:11.596Z,12.60
2023-02-05T04:58:40.704Z,16.60
2023-02-05T05:01:15.684Z,16.02
2023-02-05T05:03:44.999Z,17.88
2023-02-05T05:06:14.161Z,22.08
2023-02-05T05:08:43.133Z,17.67
2023-02-05T05:11:14.699Z,16.15
2023-02-05T05:13:44.436Z,18.20
2023-02-05T05:16:13.968Z,15.77
2023-02-05T05:18:42.842Z,16.00
2023-02-05T05:21:11.282Z,19.33
2023-02-05T05:23:40.315Z,15.82
2023-02-05T05:26:09.693Z,16.02
2023-02-05T05:28:39.983Z,18.48
2023-02-05T05:31:09.822Z,14.48
2023-02-05T05:33:38.929Z,15.13
2023-02-05T05:36:08.732Z,21.25
2023-02-05T05:38:37.566Z,18.08
2023-02-05T05:41:24.131Z,15.00
2023-02-05T05:43:55.433Z,12.57
2023-02-05T05:46:26.009Z,14.43
2023-02-05T05:48:55.852Z,16.33
2023-02-05T05:51:25.645Z,13.40
2023-02-05T05:53:54.301Z,15.18
2023-02-05T05:56:22.931Z,13.43
2023-02-05T05:58:53.303Z,17.08
2023-02-05T06:01:23.063Z,17.08
2023-02-05T06:03:52.237Z,17.07
2023-02-05T06:06:20.544Z,20.08
2023-02-05T06:08:49.209Z,19.02
2023-02-05T06:11:17.650Z,23.67
2023-02-05T06:13:46.633Z,19.83
2023-02-05T06:16:16.727Z,15.80
2023-02-05T06:18:45.248Z,19.05
2023-02-05T06:21:13.716Z,20.08
2023-02-05T06:23:42.333Z,20.35
2023-02-05T06:26:10.547Z,20.67
2023-02-05T06:28:39.203Z,19.52
2023-02-05T06:31:07.649Z,19.20
2023-02-05T06:33:37.779Z,20.02
2023-02-05T06:36:07.279Z,16.33
2023-02-05T06:38:35.924Z,118.97
2023-02-05T06:41:04.811Z,91.00
2023-02-05T06:43:33.386Z,23.50
2023-02-05T06:46:01.877Z,111.60
2023-02-05T06:48:30.860Z,62.00
2023-02-05T06:51:00.509Z,21.55
2023-02-05T06:53:29.234Z,23.45
2023-02-05T06:55:59.392Z,26.58
2023-02-05T06:58:28.286Z,33.60
2023-02-05T07:00:56.556Z,28.70
2023-02-05T07:03:25.953Z,22.73
2023-02-05T07:05:54.181Z,22.83
2023-02-05T07:08:24.171Z,21.45
2023-02-05T07:10:52.485Z,19.67
2023-02-05T07:13:21.011Z,30.23
2023-02-05T07:15:49.912Z,21.45
2023-02-05T07:18:18.501Z,35.17
2023-02-05T07:20:46.834Z,81.63
2023-02-05T07:23:15.659Z,43.63
2023-02-05T07:25:46.626Z,34.33
2023-02-05T07:30:43.828Z,20.55
2023-02-05T07:33:12.421Z,16.42
2023-02-05T07:35:40.741Z,15.82
2023-02-05T07:38:10.952Z,20.45
2023-02-05T07:40:39.477Z,19.75
2023-02-05T07:43:09.423Z,17.65
2023-02-05T07:45:37.798Z,21.48
2023-02-05T07:48:06.878Z,20.33
2023-02-05T07:50:35.964Z,18.27
2023-02-05T07:53:04.621Z,22.63
2023-02-05T07:55:33.149Z,33.47
2023-02-05T07:58:02.178Z,20.92
2023-02-05T08:00:32.394Z,55.40
2023-02-05T08:03:01.140Z,24.60
2023-02-05T08:05:30.373Z,58.45
2023-02-05T08:07:59.190Z,47.63
2023-02-05T08:10:27.692Z,39.22
2023-02-05T08:12:56.326Z,64.75
2023-02-05T08:15:24.900Z,54.95
2023-02-05T08:17:54.948Z,35.83
2023-02-05T08:20:23.412Z,51.83
2023-02-05T08:22:52.125Z,43.15
2023-02-05T08:25:20.760Z,26.55
2023-02-05T08:27:49.508Z,22.70
2023-02-05T08:30:21.729Z,17.30
2023-02-05T08:32:51.271Z,12.68
2023-02-05T08:35:20.911Z,15.68
2023-02-05T08:37:49.498Z,18.60
2023-02-05T08:40:18.228Z,17.38
2023-02-05T08:42:48.663Z,18.23
2023-02-05T08:45:17.462Z,78.55
2023-02-05T08:47:46.193Z,23.40
2023-02-05T08:50:15.789Z,18.88
2023-02-05T08:52:46.156Z,19.90
2023-02-05T08:55:15.473Z,20.88
2023-02-05T08:57:44.211Z,17.10
2023-02-05T09:00:13.845Z,19.33
2023-02-05T09:02:43.138Z,17.60
2023-02-05T09:05:12.027Z,20.48
2023-02-05T09:07:41.607Z,19.08
2023-02-05T09:10:12.582Z,20.75
2023-02-05T09:15:10.677Z,18.45
2023-02-05T09:17:39.250Z,19.75
2023-02-05T09:20:08.526Z,25.20
2023-02-05T09:22:38.734Z,18.13
2023-02-05T09:25:07.809Z,18.25
2023-02-05T09:27:37.715Z,14.55
2023-02-05T09:30:06.494Z,12.98
2023-02-05T09:32:35.397Z,16.52
2023-02-05T09:35:03.874Z,17.58
2023-02-05T09:37:32.526Z,16.08
2023-02-05T09:42:59.232Z,20.42
2023-02-05T09:45:38.835Z,21.08
2023-02-05T09:48:28.467Z,20.38
2023-02-05T09:50:58.261Z,25.80
2023-02-05T09:53:30.005Z,22.48
2023-02-05T09:55:59.716Z,20.58
2023-02-05T09:58:32.241Z,18.60
2023-02-05T10:01:03.403Z,12.20
2023-02-05T10:03:37.473Z,14.38
2023-02-05T10:06:14.754Z,17.05
2023-02-05T10:08:52.016Z,10.65
2023-02-05T10:11:24.823Z,11.88
2023-02-05T10:14:03.102Z,9.15
2023-02-05T10:17:12.170Z,10.13
2023-02-05T10:19:50.499Z,11.00
2023-02-05T10:22:24.781Z,14.27
2023-02-05T10:25:26.029Z,17.83
2023-02-05T10:27:59.414Z,19.88
2023-02-05T10:30:32.016Z,13.98
2023-02-05T10:33:02.335Z,12.30
2023-02-05T10:35:37.335Z,12.98
2023-02-05T10:38:11.839Z,12.70
2023-02-05T10:40:44.148Z,11.48
2023-02-05T10:43:20.500Z,15.07
2023-02-05T10:45:50.556Z,13.82
2023-02-05T10:48:36.478Z,11.68
2023-02-05T10:51:07.244Z,16.25
2023-02-05T10:53:36.892Z,14.27
2023-02-05T10:56:06.377Z,14.30
2023-02-05T10:58:40.208Z,20.13
2023-02-05T11:01:15.200Z,11.48
2023-02-05T11:03:49.702Z,11.57
2023-02-05T11:06:19.231Z,9.00
2023-02-05T11:08:47.560Z,9.85
2023-02-05T11:11:24.812Z,15.20
2023-02-05T11:13:55.821Z,12.38
2023-02-05T11:18:58.977Z,11.98
2023-02-05T11:21:48.298Z,13.57
2023-02-05T11:24:25.712Z,17.17
2023-02-05T11:27:29.434Z,11.10
2023-02-05T11:30:00.877Z,10.60
2023-02-05T11:32:40.221Z,13.23
2023-02-05T11:35:23.247Z,23.13
2023-02-05T11:38:01.573Z,29.02
2023-02-05T11:40:32.572Z,19.65
2023-02-05T11:45:35.701Z,17.58
2023-02-05T11:48:07.995Z,13.27
2023-02-05T11:50:36.743Z,14.32
2023-02-05T11:53:17.372Z,16.35
2023-02-05T11:55:46.036Z,36.13
2023-02-05T11:58:31.570Z,21.25
2023-02-05T12:01:06.867Z,14.90
2023-02-05T12:03:37.013Z,18.30
2023-02-05T12:06:17.136Z,18.45
2023-02-05T12:08:48.848Z,19.23
2023-02-05T12:12:04.306Z,14.77
2023-02-05T12:14:39.635Z,15.73
2023-02-05T12:17:19.264Z,15.02
2023-02-05T12:19:53.391Z,15.40
2023-02-05T12:22:30.306Z,17.50
2023-02-05T12:25:11.206Z,12.35
2023-02-05T12:27:51.290Z,27.98
2023-02-05T12:30:38.684Z,17.35
2023-02-05T12:33:40.242Z,15.18
2023-02-05T12:38:50.680Z,15.65
2023-02-05T12:41:27.609Z,12.50
2023-02-05T12:44:00.626Z,16.73
2023-02-05T12:46:47.841Z,24.23
2023-02-05T12:49:36.051Z,21.48
2023-02-05T12:52:18.834Z,12.63
2023-02-05T12:54:58.212Z,14.35
2023-02-05T12:57:30.462Z,12.43
2023-02-05T13:00:02.440Z,12.00
2023-02-05T13:02:35.986Z,10.13
2023-02-05T13:05:16.455Z,13.93
2023-02-05T13:07:48.799Z,13.45
2023-02-05T13:10:20.170Z,14.50
2023-02-05T13:15:20.553Z,13.15
2023-02-05T13:17:58.392Z,13.40
2023-02-05T13:20:43.619Z,9.93
2023-02-05T13:23:31.964Z,10.10
2023-02-05T13:26:18.796Z,13.07
2023-02-05T13:28:49.808Z,17.88
2023-02-05T13:31:23.078Z,13.95
2023-02-05T13:33:53.300Z,10.77
2023-02-05T13:36:43.929Z,11.02
2023-02-05T13:39:34.057Z,9.82
2023-02-05T13:42:16.870Z,12.13
2023-02-05T13:45:17.513Z,13.23
2023-02-05T13:48:08.290Z,13.70
2023-02-05T13:51:10.344Z,15.40
2023-02-05T13:53:48.452Z,15.57
2023-02-05T13:56:36.758Z,13.45
2023-02-05T13:59:06.816Z,14.35
2023-02-05T14:01:44.826Z,10.68
2023-02-05T14:04:21.645Z,12.48
2023-02-05T14:06:58.239Z,17.17
2023-02-05T14:09:32.403Z,19.23
2023-02-05T14:15:25.151Z,12.55
2023-02-05T14:17:55.964Z,14.27
2023-02-05T14:20:37.042Z,19.30
2023-02-05T14:26:10.497Z,12.80
2023-02-05T14:28:48.919Z,9.77
2023-02-05T14:31:50.379Z,15.05
2023-02-05T14:37:32.626Z,13.60
2023-02-05T14:40:24.565Z,13.13
2023-02-05T14:43:08.441Z,15.07
2023-02-05T14:45:44.211Z,18.77
2023-02-05T14:48:21.216Z,19.13
2023-02-05T14:51:02.373Z,18.92
2023-02-05T14:53:33.060Z,15.80
2023-02-05T14:56:02.284Z,17.20
2023-02-05T14:58:33.143Z,16.10
2023-02-05T15:01:42.004Z,14.52
2023-02-05T15:04:30.540Z,13.45
2023-02-05T15:07:01.218Z,14.02
2023-02-05T15:09:40.573Z,15.73
2023-02-05T15:12:50.147Z,16.30
2023-02-05T15:15:31.060Z,19.80
2023-02-05T15:18:04.745Z,18.67
2023-02-05T15:20:36.424Z,17.33
2023-02-05T15:23:19.523Z,15.25
2023-02-05T15:25:55.092Z,15.50
2023-02-05T15:28:28.981Z,15.32
2023-02-05T15:31:18.822Z,15.18
2023-02-05T15:33:54.817Z,17.38
2023-02-05T15:36:31.634Z,20.83
2023-02-05T15:39:08.792Z,17.05
2023-02-05T15:41:38.995Z,22.33
2023-02-05T15:44:21.593Z,23.17
2023-02-05T15:46:50.748Z,22.05
2023-02-05T15:49:19.450Z,24.42
2023-02-05T15:51:49.010Z,16.90
2023-02-05T15:54:21.289Z,18.77
2023-02-05T15:56:53.723Z,44.78
2023-02-05T15:59:25.284Z,23.50
2023-02-05T16:02:01.550Z,20.25
2023-02-05T16:04:32.384Z,30.63
2023-02-05T16:07:00.983Z,21.73
2023-02-05T16:09:31.793Z,23.50
2023-02-05T16:12:13.721Z,18.98
2023-02-05T16:14:43.879Z,18.30
2023-02-05T16:17:16.703Z,20.73
2023-02-05T16:19:49.614Z,19.85
2023-02-05T16:22:36.585Z,18.42
2023-02-05T16:25:09.217Z,16.33
2023-02-05T16:27:42.351Z,18.85
2023-02-05T16:30:19.005Z,19.17
2023-02-05T16:32:47.802Z,18.15
2023-02-05T16:35:24.593Z,23.98
2023-02-05T16:37:53.198Z,20.25
2023-02-05T16:40:32.025Z,18.25
2023-02-05T16:43:01.835Z,20.38
2023-02-05T16:45:31.538Z,21.77
2023-02-05T16:48:23.546Z,29.92
2023-02-05T16:50:53.947Z,23.33
2023-02-05T16:53:26.476Z,24.95
2023-02-05T16:55:58.547Z,28.42
2023-02-05T17:00:59.700Z,28.60
2023-02-05T17:03:30.717Z,28.85
2023-02-05T17:06:02.108Z,28.08
2023-02-05T17:08:33.280Z,27.35
2023-02-05T17:11:04.697Z,26.83
2023-02-05T17:13:38.776Z,23.90
2023-02-05T17:16:28.584Z,20.80
2023-02-05T17:19:00.593Z,19.35
2023-02-05T17:21:33.801Z,21.75
2023-02-05T17:24:04.890Z,20.20
2023-02-05T17:26:35.974Z,23.40
2023-02-05T17:29:07.634Z,17.27
2023-02-05T17:31:38.510Z,19.52
2023-02-05T17:34:07.642Z,24.45
2023-02-05T17:36:36.238Z,18.00
2023-02-05T17:39:05.076Z,18.55
2023-02-05T17:41:54.447Z,20.67
2023-02-05T17:44:24.315Z,21.30
2023-02-05T17:46:54.288Z,22.02
2023-02-05T17:49:23.063Z,23.15
2023-02-05T17:51:51.744Z,22.48
2023-02-05T17:54:23.070Z,75.97
2023-02-05T17:56:51.926Z,87.60
2023-02-05T17:59:21.745Z,66.03
2023-02-05T18:01:51.978Z,35.30
2023-02-05T18:04:20.689Z,17.83
2023-02-05T18:06:50.048Z,14.23
2023-02-05T18:09:20.122Z,16.95
2023-02-05T18:11:48.797Z,19.93
2023-02-05T18:14:17.147Z,19.83
2023-02-05T18:16:45.981Z,19.45
2023-02-05T18:19:15.966Z,18.02
2023-02-05T18:21:47.132Z,20.40
2023-02-05T18:24:15.517Z,35.08
2023-02-05T18:26:44.144Z,37.08
2023-02-05T18:29:12.505Z,29.90
2023-02-05T18:31:41.021Z,25.77
2023-02-05T18:34:09.438Z,24.90
2023-02-05T18:36:39.373Z,26.20
2023-02-05T18:39:09.864Z,29.70
2023-02-05T18:41:39.189Z,30.77
2023-02-05T18:44:07.456Z,53.15
2023-02-05T18:46:36.066Z,53.10
2023-02-05T18:49:04.440Z,49.72
2023-02-05T18:51:33.006Z,39.40
2023-02-05T18:54:02.963Z,28.55
2023-02-05T18:56:31.602Z,25.97
2023-02-05T18:59:01.120Z,22.80
2023-02-05T19:01:30.744Z,28.23
2023-02-05T19:04:02.280Z,26.35
2023-02-05T19:06:31.407Z,22.88
2023-02-05T19:09:00.624Z,26.58
2023-02-05T19:11:32.296Z,25.65
2023-02-05T19:14:02.918Z,23.60
2023-02-05T19:16:33.703Z,24.77
2023-02-05T19:19:02.389Z,25.83
2023-02-05T19:21:32.083Z,25.02
2023-02-05T19:24:05.531Z,28.30
2023-02-05T19:26:37.287Z,25.58
2023-02-05T19:29:07.978Z,26.17
2023-02-05T19:31:37.944Z,27.95
2023-02-05T19:34:06.696Z,33.50
2023-02-05T19:36:35.411Z,34.30
2023-02-05T19:39:05.848Z,31.85
2023-02-05T19:41:36.967Z,34.92
2023-02-05T19:44:07.558Z,29.00
2023-02-05T19:46:38.594Z,37.65
2023-02-05T19:49:11.757Z,33.53
2023-02-05T19:51:40.446Z,32.65
2023-02-05T19:54:08.744Z,35.60
2023-02-05T19:56:39.732Z,35.75
2023-02-05T19:59:08.506Z,36.42
2023-02-05T20:01:39.213Z,30.92
2023-02-05T20:04:10.219Z,28.23
2023-02-05T20:09:10.585Z,28.85
2023-02-05T20:11:41.741Z,30.80
2023-02-05T20:14:13.225Z,27.77
2023-02-05T20:16:42.449Z,27.35
2023-02-05T20:19:12.846Z,27.52
2023-02-05T20:21:41.585Z,31.65
2023-02-05T20:24:10.097Z,38.97
2023-02-05T20:26:40.548Z,45.67
2023-02-05T20:29:26.876Z,27.27
2023-02-05T20:31:57.713Z,30.90
2023-02-05T20:34:30.619Z,25.85
2023-02-05T20:37:00.734Z,26.85
2023-02-05T20:39:30.342Z,29.13
2023-02-05T20:42:00.814Z,29.98
2023-02-05T20:44:31.214Z,23.37
2023-02-05T20:46:59.840Z,29.27
2023-02-05T20:49:28.393Z,30.80
2023-02-05T20:51:57.169Z,33.55
2023-02-05T20:54:25.859Z,28.20
2023-02-05T20:56:57.122Z,30.90
2023-02-05T20:59:27.116Z,31.23
2023-02-05T21:01:56.584Z,34.50
2023-02-05T21:04:25.717Z,30.90
2023-02-05T21:06:54.665Z,33.50
2023-02-05T21:09:23.687Z,28.27
2023-02-05T21:11:55.745Z,30.30
2023-02-05T21:14:24.577Z,33.00
2023-02-05T21:16:54.907Z,32.03
2023-02-05T21:19:24.126Z,34.47
2023-02-05T21:21:53.086Z,35.38
2023-02-05T21:24:21.926Z,77.10
2023-02-05T21:26:51.022Z,44.72
2023-02-05T21:29:21.082Z,32.22
2023-02-05T21:31:53.094Z,37.75
2023-02-05T21:34:25.294Z,43.47
2023-02-05T21:36:55.138Z,30.17
2023-02-05T21:39:25.645Z,32.80
2023-02-05T21:41:54.807Z,35.00
2023-02-05T21:44:23.363Z,32.75
2023-02-05T21:46:53.379Z,29.92
2023-02-05T21:49:23.086Z,27.58
2023-02-05T21:51:53.419Z,34.03
2023-02-05T21:54:25.454Z,30.48
2023-02-05T21:56:55.094Z,29.30
2023-02-05T21:59:23.311Z,32.63
2023-02-05T22:01:52.272Z,32.85
2023-02-05T22:04:20.560Z,35.58
2023-02-05T22:06:51.744Z,34.15
2023-02-05T22:09:20.931Z,32.90
2023-02-05T22:11:50.641Z,34.08
2023-02-05T22:14:18.832Z,34.35
2023-02-05T22:16:47.451Z,33.60
2023-02-05T22:19:15.767Z,35.10
2023-02-05T22:21:44.735Z,33.47
2023-02-05T22:24:16.380Z,30.10
2023-02-05T22:26:45.946Z,29.20
2023-02-05T22:29:15.734Z,31.55
2023-02-05T22:31:45.468Z,32.25
2023-02-05T22:34:14.205Z,27.02
2023-02-05T22:36:43.694Z,29.77
2023-02-05T22:39:12.248Z,28.23
2023-02-05T22:41:43.064Z,28.85
2023-02-05T22:44:12.562Z,30.25
2023-02-05T22:46:42.634Z,27.23
2023-02-05T22:49:12.638Z,29.83
2023-02-05T22:51:41.686Z,26.80
2023-02-05T22:54:13.297Z,29.80
2023-02-05T22:56:43.119Z,33.00
2023-02-05T22:59:11.674Z,31.42
2023-02-05T23:01:40.349Z,28.23
2023-02-05T23:04:12.292Z,40.85
2023-02-05T23:06:42.835Z,47.53
2023-02-05T23:09:12.712Z,47.37
2023-02-05T23:11:46.113Z,41.90
2023-02-05T23:14:15.720Z,33.95
2023-02-05T23:16:46.829Z,32.83
2023-02-05T23:19:19.178Z,37.63
2023-02-05T23:21:48.800Z,32.55
2023-02-05T23:24:17.827Z,30.05
2023-02-05T23:26:50.968Z,33.63
2023-02-05T23:29:19.374Z,33.65
2023-02-05T23:31:48.321Z,32.80
2023-02-05T23:34:16.489Z,31.23
2023-02-05T23:36:44.957Z,35.47
2023-02-05T23:39:13.384Z,32.75
2023-02-05T23:41:41.838Z,32.17
2023-02-05T23:44:14.276Z,31.48
2023-02-05T23:46:43.762Z,30.08
2023-02-05T23:49:12.642Z,27.63
2023-02-05T23:51:42.185Z,29.20
2023-02-05T23:54:12.367Z,29.67
2023-02-05T23:56:41.242Z,20.20
2023-02-05T23:59:14.190Z,29.55
